createdAt,value
2018-07-12T00:01:23.538Z,15.42
2018-07-12T00:03:50.818Z,15.15
2018-07-12T00:06:18.223Z,15.01
2018-07-12T00:08:45.504Z,14.73
2018-07-12T00:11:13.239Z,14.55
2018-07-12T00:13:40.548Z,14.54
2018-07-12T00:16:07.865Z,14.52
2018-07-12T00:18:35.134Z,14.46
2018-07-12T00:21:02.447Z,14.41
2018-07-12T00:23:29.731Z,14.38
2018-07-12T00:25:57.029Z,14.41
2018-07-12T00:28:24.318Z,14.50
2018-07-12T00:30:51.609Z,14.77
2018-07-12T00:33:18.944Z,14.78
2018-07-12T00:35:46.221Z,14.90
2018-07-12T00:38:13.513Z,15.05
2018-07-12T00:40:40.794Z,15.09
2018-07-12T00:43:08.093Z,14.94
2018-07-12T00:45:35.349Z,14.99
2018-07-12T00:48:02.671Z,15.05
2018-07-12T00:50:29.954Z,15.13
2018-07-12T00:52:57.270Z,15.20
2018-07-12T00:55:24.545Z,15.25
2018-07-12T00:57:51.878Z,15.14
2018-07-12T01:00:19.186Z,14.99
2018-07-12T01:02:46.483Z,15.06
2018-07-12T01:05:13.762Z,15.12
2018-07-12T01:07:41.074Z,15.20
2018-07-12T01:10:08.345Z,15.32
2018-07-12T01:12:35.646Z,15.28
2018-07-12T01:15:02.914Z,15.25
2018-07-12T01:17:30.221Z,15.32
2018-07-12T01:19:57.519Z,15.32
2018-07-12T01:22:25.198Z,15.40
2018-07-12T01:24:52.478Z,15.37
2018-07-12T01:27:19.765Z,15.43
2018-07-12T01:29:47.033Z,15.43
2018-07-12T01:32:14.369Z,15.39
2018-07-12T01:34:41.641Z,15.27
2018-07-12T01:37:08.985Z,15.18
2018-07-12T01:39:36.253Z,15.19
2018-07-12T01:42:03.546Z,15.22
2018-07-12T01:44:30.813Z,15.20
2018-07-12T01:46:58.187Z,15.18
2018-07-12T01:49:25.478Z,15.17
2018-07-12T01:51:53.157Z,15.09
2018-07-12T01:54:20.457Z,15.06
2018-07-12T01:56:47.779Z,15.10
2018-07-12T01:59:15.053Z,15.04
2018-07-12T02:01:42.331Z,14.88
2018-07-12T02:04:09.671Z,14.72
2018-07-12T02:06:36.997Z,14.52
2018-07-12T02:09:05.027Z,14.48
2018-07-12T02:11:32.386Z,14.30
2018-07-12T02:13:59.697Z,14.23
2018-07-12T02:16:26.973Z,14.34
2018-07-12T02:18:54.273Z,14.31
2018-07-12T02:21:21.540Z,14.36
2018-07-12T02:23:48.866Z,14.43
2018-07-12T02:26:16.175Z,14.53
2018-07-12T02:28:43.478Z,14.55
2018-07-12T02:31:10.746Z,14.50
2018-07-12T02:33:38.061Z,14.56
2018-07-12T02:36:05.337Z,14.55
2018-07-12T02:38:32.674Z,14.56
2018-07-12T02:40:59.937Z,14.53
2018-07-12T02:43:27.255Z,14.48
2018-07-12T02:45:54.521Z,14.49
2018-07-12T02:48:22.741Z,14.50
2018-07-12T02:50:51.030Z,14.51
2018-07-12T02:53:18.350Z,14.52
2018-07-12T02:55:45.641Z,14.56
2018-07-12T02:58:12.938Z,14.47
2018-07-12T03:00:40.245Z,14.54
2018-07-12T03:03:07.575Z,14.56
2018-07-12T03:05:34.874Z,14.52
2018-07-12T03:08:02.207Z,14.62
2018-07-12T03:10:29.722Z,14.63
2018-07-12T03:12:57.076Z,14.55
2018-07-12T03:15:24.394Z,14.48
2018-07-12T03:17:59.023Z,14.42
2018-07-12T03:20:26.351Z,14.61
2018-07-12T03:22:54.083Z,14.61
2018-07-12T03:25:21.882Z,14.64
2018-07-12T03:27:49.213Z,14.74
2018-07-12T03:30:17.001Z,14.92
2018-07-12T03:32:44.611Z,14.86
2018-07-12T03:35:11.975Z,14.83
2018-07-12T03:37:40.015Z,14.86
2018-07-12T03:40:07.535Z,14.93
2018-07-12T03:42:35.003Z,14.74
2018-07-12T03:45:02.674Z,14.85
2018-07-12T03:47:29.985Z,14.88
2018-07-12T03:49:57.304Z,14.86
2018-07-12T03:52:24.910Z,14.85
2018-07-12T03:54:52.286Z,15.02
2018-07-12T03:57:19.684Z,14.96
2018-07-12T03:59:47.003Z,14.96
2018-07-12T04:02:14.278Z,14.98
2018-07-12T04:04:41.601Z,15.11
2018-07-12T04:07:08.906Z,15.08
2018-07-12T04:09:36.221Z,15.07
2018-07-12T04:12:03.514Z,14.96
2018-07-12T04:14:30.827Z,15.03
2018-07-12T04:16:58.112Z,15.07
2018-07-12T04:19:25.421Z,15.12
2018-07-12T04:21:52.959Z,15.18
2018-07-12T04:24:20.259Z,15.22
2018-07-12T04:26:47.539Z,15.23
2018-07-12T04:29:14.845Z,15.32
2018-07-12T04:31:42.414Z,15.23
2018-07-12T04:34:09.718Z,15.11
2018-07-12T04:36:37.086Z,15.11
2018-07-12T04:39:05.058Z,14.99
2018-07-12T04:41:32.570Z,14.86
2018-07-12T04:43:59.858Z,14.82
2018-07-12T04:46:27.238Z,14.78
2018-07-12T04:48:54.527Z,14.69
2018-07-12T04:51:21.854Z,14.66
2018-07-12T04:53:49.461Z,14.75
2018-07-12T04:56:16.777Z,14.96
2018-07-12T04:58:44.070Z,15.09
2018-07-12T05:01:11.403Z,15.20
2018-07-12T05:03:38.700Z,15.24
2018-07-12T05:06:06.482Z,15.29
2018-07-12T05:08:33.774Z,15.24
2018-07-12T05:11:01.090Z,15.18
2018-07-12T05:13:28.414Z,15.31
2018-07-12T05:15:55.754Z,15.28
2018-07-12T05:18:23.014Z,15.36
2018-07-12T05:20:50.305Z,15.43
2018-07-12T05:23:17.589Z,15.31
2018-07-12T05:25:44.891Z,15.19
2018-07-12T05:28:12.165Z,15.08
2018-07-12T05:30:39.482Z,14.94
2018-07-12T05:33:06.750Z,15.07
2018-07-12T05:35:35.262Z,15.11
2018-07-12T05:38:03.712Z,15.21
2018-07-12T05:40:32.242Z,15.17
2018-07-12T05:43:00.698Z,15.27
2018-07-12T05:45:29.222Z,15.24
2018-07-12T05:47:57.710Z,15.40
2018-07-12T05:50:26.210Z,15.18
2018-07-12T05:52:54.669Z,14.98
2018-07-12T05:55:23.181Z,15.04
2018-07-12T05:57:51.682Z,15.01
2018-07-12T06:00:20.257Z,14.96
2018-07-12T06:02:48.770Z,14.87
2018-07-12T06:05:17.266Z,14.83
2018-07-12T06:07:45.737Z,14.72
2018-07-12T06:10:14.251Z,14.77
2018-07-12T06:12:42.729Z,14.88
2018-07-12T06:15:11.226Z,14.94
2018-07-12T06:17:39.698Z,14.98
2018-07-12T06:20:10.070Z,14.87
2018-07-12T06:22:38.554Z,14.98
2018-07-12T06:25:07.275Z,14.92
2018-07-12T06:27:35.793Z,15.07
2018-07-12T06:30:05.145Z,15.18
2018-07-12T06:32:33.679Z,15.20
2018-07-12T06:35:02.170Z,15.04
2018-07-12T06:37:30.729Z,14.84
2018-07-12T06:39:59.178Z,14.67
2018-07-12T06:42:27.680Z,14.59
2018-07-12T06:44:56.161Z,14.52
2018-07-12T06:47:24.714Z,14.36
2018-07-12T06:49:53.121Z,14.31
2018-07-12T06:52:21.689Z,14.44
2018-07-12T06:54:50.230Z,14.46
2018-07-12T06:57:18.763Z,14.47
2018-07-12T07:01:11.710Z,14.53
2018-07-12T07:03:40.270Z,14.36
2018-07-12T07:06:08.786Z,14.54
2018-07-12T07:08:37.308Z,14.65
2018-07-12T07:11:05.853Z,14.68
2018-07-12T07:13:34.457Z,14.81
2018-07-12T07:16:03.346Z,14.94
2018-07-12T07:18:35.474Z,15.06
2018-07-12T07:21:04.058Z,14.95
2018-07-12T07:23:32.646Z,14.94
2018-07-12T07:26:01.176Z,14.98
2018-07-12T07:28:29.720Z,14.98
2018-07-12T07:30:58.607Z,15.06
2018-07-12T07:33:31.983Z,15.09
2018-07-12T07:36:00.494Z,15.10
2018-07-12T07:38:29.030Z,14.97
2018-07-12T07:40:58.082Z,15.13
2018-07-12T07:43:26.630Z,15.28
2018-07-12T07:45:55.163Z,15.40
2018-07-12T07:48:24.113Z,15.49
2018-07-12T07:50:52.628Z,15.59
2018-07-12T07:53:21.185Z,15.67
2018-07-12T07:55:49.693Z,16.03
2018-07-12T07:58:18.335Z,16.14
2018-07-12T08:00:46.838Z,16.29
2018-07-12T08:03:15.484Z,16.67
2018-07-12T08:05:43.956Z,16.81
2018-07-12T08:08:12.499Z,17.40
2018-07-12T08:10:41.055Z,17.19
2018-07-12T08:13:09.609Z,17.49
2018-07-12T08:15:38.186Z,17.62
2018-07-12T08:18:06.777Z,17.70
2018-07-12T08:20:35.324Z,17.63
2018-07-12T08:23:03.883Z,17.93
2018-07-12T08:25:32.446Z,17.91
2018-07-12T08:28:12.646Z,18.38
2018-07-12T08:30:42.984Z,19.20
2018-07-12T08:33:11.763Z,19.58
2018-07-12T08:35:40.334Z,20.23
2018-07-12T08:38:08.953Z,20.75
2018-07-12T08:40:37.636Z,20.73
2018-07-12T08:43:06.502Z,21.39
2018-07-12T08:45:35.102Z,21.86
2018-07-12T08:48:04.638Z,22.05
2018-07-12T08:50:34.329Z,22.14
2018-07-12T08:53:03.479Z,21.78
2018-07-12T08:55:32.781Z,21.15
2018-07-12T08:58:01.445Z,20.99
2018-07-12T09:00:30.100Z,21.38
2018-07-12T09:02:58.680Z,21.78
2018-07-12T09:05:27.222Z,21.86
2018-07-12T09:07:55.837Z,21.62
2018-07-12T09:10:24.423Z,22.23
2018-07-12T09:12:53.486Z,21.99
2018-07-12T09:15:22.014Z,23.54
2018-07-12T09:17:50.535Z,25.84
2018-07-12T09:20:19.105Z,28.88
2018-07-12T09:22:47.623Z,29.85
2018-07-12T09:25:16.133Z,30.40
2018-07-12T09:27:44.626Z,30.70
2018-07-12T09:30:13.132Z,31.98
2018-07-12T09:32:41.902Z,31.36
2018-07-12T09:35:10.991Z,32.60
2018-07-12T09:37:39.542Z,31.16
2018-07-12T09:40:08.098Z,32.13
2018-07-12T09:42:36.577Z,32.88
2018-07-12T09:45:05.143Z,31.16
2018-07-12T09:47:33.713Z,32.88
2018-07-12T09:50:02.228Z,34.19
2018-07-12T09:52:33.650Z,32.46
2018-07-12T09:55:02.647Z,30.11
2018-07-12T09:57:43.014Z,27.78
2018-07-12T10:00:11.931Z,27.93
2018-07-12T10:02:45.650Z,26.82
2018-07-12T10:05:19.502Z,27.50
2018-07-12T10:07:51.531Z,28.28
2018-07-12T10:10:24.219Z,28.08
2018-07-12T10:12:58.043Z,26.89
2018-07-12T10:15:31.763Z,26.32
2018-07-12T10:18:05.677Z,25.68
2018-07-12T10:20:34.198Z,25.14
2018-07-12T10:23:02.674Z,24.46
2018-07-12T10:25:31.179Z,24.26
2018-07-12T10:27:59.666Z,24.54
2018-07-12T10:30:28.186Z,24.89
2018-07-12T10:32:56.670Z,24.74
2018-07-12T10:35:25.208Z,23.92
2018-07-12T10:37:53.694Z,24.69
2018-07-12T10:40:22.185Z,27.41
2018-07-12T10:42:50.682Z,28.26
2018-07-12T10:45:19.205Z,27.18
2018-07-12T10:47:47.659Z,26.40
2018-07-12T10:50:16.164Z,26.07
2018-07-12T10:52:44.623Z,25.50
2018-07-12T10:55:13.111Z,25.71
2018-07-12T10:57:41.589Z,27.34
2018-07-12T11:00:10.903Z,29.44
2018-07-12T11:02:39.383Z,30.74
2018-07-12T11:05:07.889Z,32.38
2018-07-12T11:07:36.461Z,32.91
2018-07-12T11:10:05.363Z,33.90
2018-07-12T11:12:34.074Z,34.15
2018-07-12T11:15:03.420Z,34.01
2018-07-12T11:17:32.036Z,34.20
2018-07-12T11:20:02.394Z,31.93
2018-07-12T11:22:32.381Z,31.77
2018-07-12T11:25:01.996Z,32.97
2018-07-12T11:27:37.489Z,32.82
2018-07-12T11:30:12.731Z,33.04
2018-07-12T11:32:45.124Z,33.67
2018-07-12T11:35:15.730Z,32.95
2018-07-12T11:37:46.401Z,30.72
2018-07-12T11:40:17.576Z,29.39
2018-07-12T11:42:47.677Z,28.20
2018-07-12T11:45:16.207Z,27.13
2018-07-12T11:47:44.794Z,26.00
2018-07-12T11:50:13.289Z,25.56
2018-07-12T11:52:41.890Z,26.43
2018-07-12T11:55:10.400Z,26.38
2018-07-12T11:57:38.909Z,26.91
2018-07-12T12:00:07.475Z,28.40
2018-07-12T12:02:35.998Z,28.94
2018-07-12T12:05:04.534Z,29.48
2018-07-12T12:07:33.091Z,29.58
2018-07-12T12:10:01.580Z,29.18
2018-07-12T12:12:30.175Z,29.64
2018-07-12T12:14:58.680Z,29.19
2018-07-12T12:17:27.236Z,29.72
2018-07-12T12:19:55.883Z,30.01
2018-07-12T12:22:24.446Z,29.54
2018-07-12T12:24:52.931Z,30.78
2018-07-12T12:27:21.717Z,30.12
2018-07-12T12:29:50.251Z,30.27
2018-07-12T12:32:18.834Z,29.98
2018-07-12T12:34:47.440Z,29.64
2018-07-12T12:37:16.239Z,30.17
2018-07-12T12:39:44.942Z,30.02
2018-07-12T12:42:13.467Z,29.66
2018-07-12T12:44:41.967Z,30.04
2018-07-12T12:47:10.455Z,30.72
2018-07-12T12:49:38.976Z,30.41
2018-07-12T12:52:07.483Z,30.22
2018-07-12T12:54:35.994Z,29.99
2018-07-12T12:57:04.482Z,30.20
2018-07-12T12:59:33.021Z,29.82
2018-07-12T13:02:01.512Z,29.33
2018-07-12T13:04:30.020Z,29.47
2018-07-12T13:06:58.502Z,29.76
2018-07-12T13:09:27.046Z,30.13
2018-07-12T13:11:55.560Z,29.79
2018-07-12T13:14:24.108Z,31.26
2018-07-12T13:16:52.602Z,31.33
2018-07-12T13:19:21.114Z,31.01
2018-07-12T13:21:49.686Z,30.48
2018-07-12T13:24:18.191Z,30.27
2018-07-12T13:26:46.646Z,30.94
2018-07-12T13:29:15.140Z,30.40
2018-07-12T13:31:43.950Z,29.83
2018-07-12T13:34:12.467Z,28.65
2018-07-12T13:36:40.922Z,29.31
2018-07-12T13:39:10.184Z,30.02
2018-07-12T13:41:38.645Z,29.24
2018-07-12T13:44:16.721Z,28.92
2018-07-12T13:46:45.578Z,30.78
2018-07-12T13:49:14.120Z,30.82
2018-07-12T13:51:42.617Z,30.13
2018-07-12T13:54:11.175Z,30.34
2018-07-12T13:56:39.630Z,30.81
2018-07-12T13:59:08.246Z,31.31
2018-07-12T14:01:36.718Z,31.98
2018-07-12T14:04:05.274Z,33.08
2018-07-12T14:06:33.766Z,32.44
2018-07-12T14:09:02.282Z,31.85
2018-07-12T14:11:30.766Z,32.24
2018-07-12T14:13:59.261Z,31.77
2018-07-12T14:16:27.738Z,31.32
2018-07-12T14:18:56.259Z,31.12
2018-07-12T14:21:24.778Z,30.88
2018-07-12T14:23:53.308Z,31.34
2018-07-12T14:26:21.854Z,30.66
2018-07-12T14:28:50.353Z,29.92
2018-07-12T14:31:18.826Z,28.83
2018-07-12T14:33:47.384Z,30.07
2018-07-12T14:36:15.870Z,30.29
2018-07-12T14:38:44.342Z,29.43
2018-07-12T14:41:12.842Z,29.09
2018-07-12T14:43:41.321Z,28.28
2018-07-12T14:46:11.025Z,27.87
2018-07-12T14:48:39.540Z,28.08
2018-07-12T14:51:08.057Z,28.15
2018-07-12T14:53:36.520Z,27.92
2018-07-12T14:56:05.122Z,27.60
2018-07-12T14:58:33.610Z,28.45
2018-07-12T15:01:02.106Z,28.27
2018-07-12T15:03:30.594Z,28.69
2018-07-12T15:05:59.090Z,28.85
2018-07-12T15:08:27.550Z,29.85
2018-07-12T15:10:56.123Z,30.62
2018-07-12T15:13:24.593Z,30.66
2018-07-12T15:15:53.157Z,29.79
2018-07-12T15:18:21.628Z,29.25
2018-07-12T15:20:50.197Z,28.86
2018-07-12T15:23:18.777Z,28.35
2018-07-12T15:25:47.346Z,28.52
2018-07-12T15:28:15.797Z,28.20
2018-07-12T15:30:44.303Z,27.89
2018-07-12T15:33:12.989Z,28.01
2018-07-12T15:35:41.516Z,28.17
2018-07-12T15:38:10.075Z,27.77
2018-07-12T15:40:38.581Z,27.86
2018-07-12T15:43:07.107Z,27.52
2018-07-12T15:45:35.757Z,27.42
2018-07-12T15:48:04.311Z,27.06
2018-07-12T15:50:32.810Z,26.69
2018-07-12T15:53:01.343Z,26.66
2018-07-12T15:55:29.846Z,26.55
2018-07-12T15:57:58.339Z,26.65
2018-07-12T16:00:26.980Z,26.85
2018-07-12T16:02:55.509Z,26.40
2018-07-12T16:05:23.998Z,26.47
2018-07-12T16:07:52.794Z,26.52
2018-07-12T16:10:21.311Z,26.70
2018-07-12T16:12:49.829Z,26.85
2018-07-12T16:15:18.328Z,27.03
2018-07-12T16:17:46.782Z,27.16
2018-07-12T16:20:15.262Z,26.97
2018-07-12T16:22:43.741Z,27.05
2018-07-12T16:25:12.185Z,26.95
2018-07-12T16:27:40.700Z,26.97
2018-07-12T16:30:09.151Z,27.15
2018-07-12T16:32:37.656Z,27.28
2018-07-12T16:35:06.381Z,27.08
2018-07-12T16:37:34.865Z,27.24
2018-07-12T16:40:03.372Z,28.23
2018-07-12T16:42:31.869Z,29.64
2018-07-12T16:45:00.330Z,30.29
2018-07-12T16:47:28.813Z,30.56
2018-07-12T16:49:57.270Z,30.97
2018-07-12T16:52:25.825Z,31.90
2018-07-12T16:54:54.290Z,31.96
2018-07-12T16:57:22.789Z,31.69
2018-07-12T16:59:51.265Z,31.88
2018-07-12T17:02:19.797Z,31.60
2018-07-12T17:04:48.286Z,31.06
2018-07-12T17:07:16.795Z,30.09
2018-07-12T17:09:45.237Z,28.98
2018-07-12T17:12:13.913Z,28.25
2018-07-12T17:14:42.393Z,27.36
2018-07-12T17:17:10.931Z,26.88
2018-07-12T17:19:39.419Z,26.34
2018-07-12T17:22:08.595Z,26.10
2018-07-12T17:24:37.093Z,26.24
2018-07-12T17:27:05.918Z,26.33
2018-07-12T17:29:34.402Z,26.20
2018-07-12T17:32:02.923Z,26.26
2018-07-12T17:34:31.406Z,26.01
2018-07-12T17:36:59.915Z,26.06
2018-07-12T17:39:28.420Z,26.04
2018-07-12T17:41:56.942Z,25.86
2018-07-12T17:44:25.428Z,25.87
2018-07-12T17:46:53.977Z,25.55
2018-07-12T17:49:22.446Z,25.55
2018-07-12T17:51:50.946Z,25.28
2018-07-12T17:54:27.673Z,25.20
2018-07-12T17:56:59.297Z,25.12
2018-07-12T17:59:27.781Z,24.97
2018-07-12T18:01:56.302Z,25.03
2018-07-12T18:04:25.614Z,24.89
2018-07-12T18:06:54.121Z,24.60
2018-07-12T18:09:22.598Z,24.63
2018-07-12T18:11:51.072Z,24.56
2018-07-12T18:14:19.595Z,24.56
2018-07-12T18:16:48.088Z,24.50
2018-07-12T18:19:16.537Z,24.41
2018-07-12T18:21:45.040Z,24.38
2018-07-12T18:24:13.529Z,24.14
2018-07-12T18:26:42.006Z,23.74
2018-07-12T18:29:10.523Z,23.84
2018-07-12T18:31:39.205Z,23.69
2018-07-12T18:34:07.711Z,23.57
2018-07-12T18:36:36.308Z,23.52
2018-07-12T18:39:06.410Z,23.35
2018-07-12T18:41:34.878Z,23.20
2018-07-12T18:44:03.442Z,23.12
2018-07-12T18:46:31.893Z,23.14
2018-07-12T18:49:00.377Z,23.16
2018-07-12T18:51:28.838Z,23.03
2018-07-12T18:53:57.318Z,22.91
2018-07-12T18:56:25.774Z,22.74
2018-07-12T18:58:54.289Z,22.55
2018-07-12T19:01:24.914Z,22.48
2018-07-12T19:03:53.455Z,22.26
2018-07-12T19:06:21.949Z,22.15
2018-07-12T19:08:50.569Z,21.97
2018-07-12T19:11:19.049Z,21.77
2018-07-12T19:13:48.168Z,21.76
2018-07-12T19:16:17.346Z,21.58
2018-07-12T19:18:46.041Z,21.56
2018-07-12T19:21:14.821Z,21.36
2018-07-12T19:23:43.330Z,21.30
2018-07-12T19:26:11.833Z,21.29
2018-07-12T19:28:40.369Z,21.18
2018-07-12T19:31:08.963Z,20.98
2018-07-12T19:33:37.573Z,20.90
2018-07-12T19:36:06.177Z,20.84
2018-07-12T19:38:34.732Z,20.72
2018-07-12T19:41:03.243Z,20.62
2018-07-12T19:43:31.830Z,20.56
2018-07-12T19:46:00.323Z,20.52
2018-07-12T19:48:28.873Z,20.41
2018-07-12T19:50:57.382Z,20.34
2018-07-12T19:53:25.927Z,20.27
2018-07-12T19:55:54.406Z,20.20
2018-07-12T19:58:22.926Z,20.15
2018-07-12T20:00:51.421Z,20.10
2018-07-12T20:03:19.977Z,20.06
2018-07-12T20:05:48.513Z,19.97
2018-07-12T20:08:17.038Z,19.91
2018-07-12T20:10:45.646Z,19.80
2018-07-12T20:13:14.135Z,19.80
2018-07-12T20:15:42.644Z,19.81
2018-07-12T20:18:11.155Z,19.84
2018-07-12T20:20:39.763Z,19.94
2018-07-12T20:23:08.281Z,20.02
2018-07-12T20:25:36.905Z,20.04
2018-07-12T20:28:05.679Z,20.04
2018-07-12T20:30:34.221Z,20.11
2018-07-12T20:33:03.127Z,20.20
2018-07-12T20:35:31.652Z,20.14
2018-07-12T20:38:00.192Z,20.02
2018-07-12T20:40:28.774Z,20.03
2018-07-12T20:42:57.289Z,19.96
2018-07-12T20:45:25.882Z,19.63
2018-07-12T20:47:54.510Z,19.28
2018-07-12T20:50:23.083Z,19.12
2018-07-12T20:52:51.602Z,19.05
2018-07-12T20:55:20.127Z,19.11
2018-07-12T20:57:50.537Z,19.10
2018-07-12T21:00:19.058Z,19.06
2018-07-12T21:02:48.494Z,19.02
2018-07-12T21:05:17.061Z,18.98
2018-07-12T21:07:45.554Z,19.13
2018-07-12T21:10:14.110Z,19.16
2018-07-12T21:12:42.738Z,19.22
2018-07-12T21:15:11.265Z,19.24
2018-07-12T21:17:39.752Z,19.30
2018-07-12T21:20:08.346Z,19.43
2018-07-12T21:22:37.003Z,19.41
2018-07-12T21:25:05.573Z,19.46
2018-07-12T21:27:34.073Z,19.52
2018-07-12T21:30:02.642Z,19.58
2018-07-12T21:32:31.138Z,19.47
2018-07-12T21:34:59.701Z,19.38
2018-07-12T21:37:28.190Z,19.33
2018-07-12T21:39:56.707Z,19.11
2018-07-12T21:42:25.209Z,19.32
2018-07-12T21:44:53.827Z,19.40
2018-07-12T21:47:22.682Z,19.54
2018-07-12T21:49:51.266Z,19.41
2018-07-12T21:52:19.985Z,19.23
2018-07-12T21:54:49.396Z,19.16
2018-07-12T21:57:19.315Z,19.25
2018-07-12T21:59:47.866Z,19.26
2018-07-12T22:02:16.470Z,19.11
2018-07-12T22:04:45.086Z,19.29
2018-07-12T22:08:26.096Z,19.26
2018-07-12T22:10:57.929Z,19.25
2018-07-12T22:13:27.240Z,19.41
2018-07-12T22:15:55.819Z,19.42
2018-07-12T22:18:25.203Z,19.48
2018-07-12T22:20:53.735Z,19.46
2018-07-12T22:23:22.258Z,19.42
2018-07-12T22:25:50.831Z,19.54
2018-07-12T22:28:20.711Z,19.58
2018-07-12T22:30:49.298Z,19.52
2018-07-12T22:33:17.841Z,19.52
2018-07-12T22:35:47.314Z,19.44
2018-07-12T22:38:15.809Z,19.46
2018-07-12T22:40:44.334Z,19.35
2018-07-12T22:43:13.466Z,19.37
2018-07-12T22:45:41.988Z,19.32
2018-07-12T22:48:10.568Z,19.11
2018-07-12T22:50:39.071Z,19.12
2018-07-12T22:53:07.561Z,19.08
2018-07-12T22:55:36.064Z,19.11
2018-07-12T22:58:04.553Z,19.08
2018-07-12T23:00:33.081Z,19.17
2018-07-12T23:03:01.590Z,19.15
2018-07-12T23:05:30.115Z,19.11
2018-07-12T23:07:58.625Z,19.09
2018-07-12T23:10:27.186Z,19.08
2018-07-12T23:12:55.836Z,19.00
2018-07-12T23:15:24.349Z,18.75
2018-07-12T23:17:52.838Z,18.55
2018-07-12T23:20:21.909Z,18.42
2018-07-12T23:22:50.434Z,18.08
2018-07-12T23:25:18.947Z,17.91
2018-07-12T23:27:47.608Z,17.95
2018-07-12T23:30:16.149Z,17.92
2018-07-12T23:32:45.744Z,18.09
2018-07-12T23:35:14.243Z,18.24
2018-07-12T23:37:43.452Z,18.27
2018-07-12T23:40:11.923Z,18.34
2018-07-12T23:42:40.456Z,18.34
2018-07-12T23:45:09.002Z,18.30
2018-07-12T23:47:37.554Z,18.45
2018-07-12T23:50:06.794Z,18.39
2018-07-12T23:52:35.353Z,18.35
2018-07-12T23:55:03.854Z,18.40
2018-07-12T23:57:32.367Z,18.53
